RYR0599 EGSS-LEAM
Flight info
| Callsign | RYR0599 |
|---|---|
| Flight time | 2h 37m |
| Altitude | 39000 |
| Route | DET M604 LYD M189 HAWKE DCT ETRAT A34 LGL H20 BENAR A34 AMB B19 ENSAC R10 BTZ R299 DONOS M299 PPN N10 ALEPO N857 GARVU N10 BANEV N857 BAN N10 CJN L27 ANZAN N869 BLN N865 ESILA |
| Aircraft | B38M/M-SDE1FGHILORVWXY/HB1 |
Departure
| Time | 2026-04-16 08:59 |
|---|---|
| Airport | London Stansted Airport (EGSS) |
Arrival
| Time | 2026-04-16 11:37 |
|---|---|
| Airport | Almería Airport (LEAM) |
| Time | Latitude | Longitude | Altitude | Speed | Heading |
|---|---|---|---|---|---|
| 2026-04-16 08:49 | 51.89076 | 0.25608 | 356 ft | 0 kts | 43° |
| 2026-04-16 08:50 | 51.89058 | 0.25582 | 360 ft | 4 kts | 41° |
| 2026-04-16 08:50 | 51.89039 | 0.25557 | 358 ft | 3 kts | 28° |
| 2026-04-16 08:51 | 51.89025 | 0.25550 | 361 ft | 2 kts | 343° |
| 2026-04-16 08:51 | 51.89015 | 0.25558 | 360 ft | 2 kts | 316° |
| 2026-04-16 08:51 | 51.89008 | 0.25570 | 355 ft | 0 kts | 314° |
| 2026-04-16 08:55 | 51.89009 | 0.25569 | 354 ft | 1 kts | 314° |
| 2026-04-16 08:56 | 51.89028 | 0.25536 | 355 ft | 7 kts | 314° |
| 2026-04-16 08:56 | 51.89070 | 0.25466 | 351 ft | 10 kts | 314° |
| 2026-04-16 08:56 | 51.89123 | 0.25379 | 351 ft | 12 kts | 314° |
| 2026-04-16 08:56 | 51.89185 | 0.25276 | 358 ft | 14 kts | 314° |
| 2026-04-16 08:57 | 51.89253 | 0.25212 | 359 ft | 11 kts | 8° |
| 2026-04-16 08:57 | 51.89330 | 0.25265 | 355 ft | 13 kts | 1° |
| 2026-04-16 08:57 | 51.89397 | 0.25186 | 353 ft | 11 kts | 314° |
| 2026-04-16 08:57 | 51.89461 | 0.25080 | 345 ft | 11 kts | 315° |
| 2026-04-16 08:58 | 51.89492 | 0.24980 | 351 ft | 8 kts | 242° |
| 2026-04-16 08:58 | 51.89467 | 0.24935 | 339 ft | 0 kts | 223° |
| 2026-04-16 08:58 | 51.89438 | 0.24890 | 340 ft | 23 kts | 223° |
| 2026-04-16 08:59 | 51.89121 | 0.24415 | 348 ft | 101 kts | 223° |
| 2026-04-16 08:59 | 51.88427 | 0.23388 | 420 ft | 158 kts | 222° |
| 2026-04-16 08:59 | 51.87606 | 0.22171 | 1271 ft | 160 kts | 224° |
| 2026-04-16 08:59 | 51.86804 | 0.20943 | 2368 ft | 157 kts | 225° |
| 2026-04-16 09:00 | 51.85989 | 0.19707 | 3160 ft | 167 kts | 224° |
| 2026-04-16 09:00 | 51.85038 | 0.18532 | 3758 ft | 187 kts | 207° |
| 2026-04-16 09:00 | 51.83659 | 0.18154 | 4386 ft | 214 kts | 180° |
| 2026-04-16 09:00 | 51.82175 | 0.18900 | 5009 ft | 237 kts | 159° |
| 2026-04-16 09:01 | 51.79042 | 0.21441 | 5251 ft | 266 kts | 156° |
| 2026-04-16 09:01 | 51.77425 | 0.22837 | 6309 ft | 269 kts | 156° |
| 2026-04-16 09:01 | 51.75733 | 0.24290 | 7253 ft | 275 kts | 156° |
| 2026-04-16 09:02 | 51.74057 | 0.25726 | 8287 ft | 278 kts | 156° |
| 2026-04-16 09:02 | 51.72302 | 0.27226 | 9263 ft | 285 kts | 156° |
| 2026-04-16 09:02 | 51.70561 | 0.28712 | 10250 ft | 288 kts | 156° |
| 2026-04-16 09:02 | 51.68756 | 0.30249 | 10960 ft | 301 kts | 156° |
| 2026-04-16 09:03 | 51.66853 | 0.31870 | 11481 ft | 319 kts | 156° |
| 2026-04-16 09:03 | 51.64838 | 0.33585 | 12030 ft | 334 kts | 156° |
| 2026-04-16 09:03 | 51.62749 | 0.35360 | 12690 ft | 343 kts | 156° |
| 2026-04-16 09:03 | 51.60638 | 0.37152 | 13635 ft | 344 kts | 156° |
| 2026-04-16 09:04 | 51.58501 | 0.38964 | 14332 ft | 351 kts | 156° |
| 2026-04-16 09:04 | 51.56326 | 0.40805 | 15041 ft | 355 kts | 156° |
| 2026-04-16 09:04 | 51.54130 | 0.42663 | 15707 ft | 360 kts | 157° |
| 2026-04-16 09:04 | 51.51892 | 0.44555 | 16383 ft | 365 kts | 157° |
| 2026-04-16 09:05 | 51.49630 | 0.46465 | 17036 ft | 370 kts | 158° |
| 2026-04-16 09:05 | 51.47336 | 0.48401 | 17683 ft | 375 kts | 158° |
| 2026-04-16 09:05 | 51.45007 | 0.50363 | 18331 ft | 379 kts | 158° |
| 2026-04-16 09:05 | 51.42667 | 0.52333 | 18881 ft | 384 kts | 158° |
| 2026-04-16 09:06 | 51.40283 | 0.54337 | 19439 ft | 387 kts | 158° |
| 2026-04-16 09:06 | 51.37889 | 0.56346 | 19999 ft | 391 kts | 158° |
| 2026-04-16 09:06 | 51.35466 | 0.58379 | 20526 ft | 395 kts | 158° |
| 2026-04-16 09:06 | 51.33052 | 0.60400 | 21066 ft | 398 kts | 158° |
| 2026-04-16 09:07 | 51.30590 | 0.62460 | 21609 ft | 401 kts | 158° |
| 2026-04-16 09:07 | 51.28073 | 0.64562 | 22147 ft | 405 kts | 158° |
| 2026-04-16 09:07 | 51.25602 | 0.66623 | 22672 ft | 408 kts | 158° |
| 2026-04-16 09:07 | 51.23075 | 0.68729 | 23198 ft | 411 kts | 159° |
| 2026-04-16 09:08 | 51.20537 | 0.70843 | 23702 ft | 415 kts | 159° |
| 2026-04-16 09:08 | 51.17961 | 0.72983 | 24156 ft | 418 kts | 159° |
| 2026-04-16 09:08 | 51.15346 | 0.75155 | 24591 ft | 420 kts | 159° |
| 2026-04-16 09:08 | 51.12782 | 0.77281 | 25009 ft | 422 kts | 159° |
| 2026-04-16 09:09 | 51.10172 | 0.79441 | 25421 ft | 425 kts | 159° |
| 2026-04-16 09:09 | 51.07536 | 0.81621 | 25852 ft | 427 kts | 159° |
| 2026-04-16 09:09 | 51.04852 | 0.83593 | 26241 ft | 422 kts | 169° |
| 2026-04-16 09:09 | 51.01997 | 0.84381 | 26565 ft | 411 kts | 187° |
| 2026-04-16 09:10 | 50.99212 | 0.83840 | 26882 ft | 401 kts | 201° |
| 2026-04-16 09:10 | 50.96644 | 0.82221 | 27182 ft | 394 kts | 216° |
| 2026-04-16 09:10 | 50.94329 | 0.79902 | 27521 ft | 394 kts | 220° |
| 2026-04-16 09:10 | 50.92098 | 0.77410 | 27895 ft | 395 kts | 221° |
| 2026-04-16 09:11 | 50.89904 | 0.74801 | 28271 ft | 396 kts | 223° |
| 2026-04-16 09:11 | 50.87719 | 0.72113 | 28635 ft | 398 kts | 223° |
| 2026-04-16 09:11 | 50.85542 | 0.69396 | 28976 ft | 400 kts | 224° |
| 2026-04-16 09:11 | 50.83353 | 0.66638 | 29351 ft | 402 kts | 224° |
| 2026-04-16 09:12 | 50.81173 | 0.63880 | 29708 ft | 404 kts | 224° |
| 2026-04-16 09:12 | 50.78981 | 0.61103 | 30044 ft | 406 kts | 224° |
| 2026-04-16 09:12 | 50.76765 | 0.58297 | 30364 ft | 408 kts | 224° |
| 2026-04-16 09:12 | 50.74549 | 0.55492 | 30646 ft | 410 kts | 224° |
| 2026-04-16 09:13 | 50.72310 | 0.52664 | 30937 ft | 412 kts | 225° |
| 2026-04-16 09:13 | 50.70073 | 0.49841 | 31223 ft | 413 kts | 225° |
| 2026-04-16 09:13 | 50.67820 | 0.47002 | 31559 ft | 414 kts | 225° |
| 2026-04-16 09:13 | 50.65581 | 0.44184 | 31967 ft | 412 kts | 225° |
| 2026-04-16 09:14 | 50.63373 | 0.41407 | 32371 ft | 410 kts | 225° |
| 2026-04-16 09:14 | 50.61149 | 0.38616 | 32751 ft | 409 kts | 226° |
| 2026-04-16 09:14 | 50.58926 | 0.35828 | 33134 ft | 408 kts | 226° |
| 2026-04-16 09:14 | 50.56705 | 0.33046 | 33515 ft | 407 kts | 226° |
| 2026-04-16 09:15 | 50.54493 | 0.30280 | 33887 ft | 406 kts | 226° |
| 2026-04-16 09:15 | 50.52291 | 0.27529 | 34253 ft | 405 kts | 226° |
| 2026-04-16 09:15 | 50.50083 | 0.24775 | 34561 ft | 404 kts | 226° |
| 2026-04-16 09:15 | 50.47884 | 0.22036 | 34829 ft | 404 kts | 226° |
| 2026-04-16 09:16 | 50.45684 | 0.19297 | 35092 ft | 404 kts | 226° |
| 2026-04-16 09:16 | 50.43475 | 0.16552 | 35375 ft | 403 kts | 226° |
| 2026-04-16 09:16 | 50.41283 | 0.13830 | 35648 ft | 403 kts | 226° |
| 2026-04-16 09:16 | 50.38936 | 0.11356 | 35887 ft | 414 kts | 214° |
| 2026-04-16 09:17 | 50.36148 | 0.09896 | 36163 ft | 431 kts | 198° |
| 2026-04-16 09:17 | 50.33110 | 0.09603 | 36381 ft | 447 kts | 185° |
| 2026-04-16 09:17 | 50.30008 | 0.09894 | 36567 ft | 448 kts | 186° |
| 2026-04-16 09:17 | 50.26880 | 0.10179 | 36762 ft | 449 kts | 185° |
| 2026-04-16 09:18 | 50.23762 | 0.10492 | 37010 ft | 449 kts | 185° |
| 2026-04-16 09:18 | 50.20657 | 0.10817 | 37260 ft | 448 kts | 185° |
| 2026-04-16 09:18 | 50.17544 | 0.11147 | 37492 ft | 447 kts | 185° |
| 2026-04-16 09:18 | 50.14449 | 0.11476 | 37723 ft | 446 kts | 185° |
| 2026-04-16 09:19 | 50.11341 | 0.11806 | 37937 ft | 446 kts | 185° |
| 2026-04-16 09:19 | 50.08296 | 0.12129 | 38140 ft | 445 kts | 185° |
| 2026-04-16 09:19 | 50.05209 | 0.12456 | 38337 ft | 445 kts | 185° |
| 2026-04-16 09:19 | 50.02116 | 0.12784 | 38536 ft | 444 kts | 185° |
| 2026-04-16 09:20 | 49.99039 | 0.13109 | 38725 ft | 444 kts | 185° |
| 2026-04-16 09:20 | 49.95960 | 0.13435 | 38895 ft | 443 kts | 185° |
| 2026-04-16 09:20 | 49.92887 | 0.13759 | 39033 ft | 442 kts | 185° |
| 2026-04-16 09:20 | 49.89805 | 0.14084 | 39168 ft | 442 kts | 184° |
| 2026-04-16 09:21 | 49.86735 | 0.14407 | 39220 ft | 443 kts | 184° |
| 2026-04-16 09:21 | 49.80602 | 0.15050 | 39233 ft | 442 kts | 184° |
| 2026-04-16 09:22 | 49.74461 | 0.15693 | 39233 ft | 442 kts | 184° |
| 2026-04-16 09:22 | 49.68361 | 0.16430 | 39226 ft | 448 kts | 176° |
| 2026-04-16 09:23 | 49.63254 | 0.18414 | 39225 ft | 453 kts | 173° |
| 2026-04-16 09:23 | 49.56147 | 0.21247 | 39233 ft | 454 kts | 173° |
| 2026-04-16 09:24 | 49.51024 | 0.23303 | 39234 ft | 454 kts | 173° |
| 2026-04-16 09:24 | 49.44912 | 0.25752 | 39231 ft | 454 kts | 173° |
| 2026-04-16 09:25 | 49.38797 | 0.28196 | 39234 ft | 454 kts | 173° |
| 2026-04-16 09:25 | 49.32718 | 0.30620 | 39243 ft | 454 kts | 173° |
| 2026-04-16 09:26 | 49.26610 | 0.33242 | 39240 ft | 456 kts | 172° |
| 2026-04-16 09:26 | 49.20507 | 0.35855 | 39235 ft | 456 kts | 172° |
| 2026-04-16 09:27 | 49.14391 | 0.38462 | 39245 ft | 456 kts | 172° |
| 2026-04-16 09:27 | 49.08262 | 0.41026 | 39241 ft | 456 kts | 172° |
| 2026-04-16 09:28 | 49.02139 | 0.43554 | 39248 ft | 456 kts | 172° |
| 2026-04-16 09:28 | 48.96007 | 0.46080 | 39251 ft | 457 kts | 172° |
| 2026-04-16 09:29 | 48.89875 | 0.48601 | 39254 ft | 457 kts | 172° |
| 2026-04-16 09:29 | 48.83732 | 0.51119 | 39258 ft | 457 kts | 172° |
| 2026-04-16 09:30 | 48.77577 | 0.53619 | 39258 ft | 457 kts | 172° |
| 2026-04-16 09:30 | 48.71435 | 0.56090 | 39264 ft | 457 kts | 172° |
| 2026-04-16 09:31 | 48.65285 | 0.58559 | 39262 ft | 457 kts | 172° |
| 2026-04-16 09:31 | 48.59172 | 0.61007 | 39264 ft | 457 kts | 172° |
| 2026-04-16 09:32 | 48.53015 | 0.63466 | 39265 ft | 458 kts | 172° |
| 2026-04-16 09:32 | 48.46866 | 0.65914 | 39273 ft | 458 kts | 172° |
| 2026-04-16 09:33 | 48.40699 | 0.68361 | 39266 ft | 458 kts | 171° |
| 2026-04-16 09:33 | 48.34543 | 0.70799 | 39272 ft | 458 kts | 171° |
| 2026-04-16 09:34 | 48.28391 | 0.73229 | 39270 ft | 458 kts | 171° |
| 2026-04-16 09:34 | 48.22230 | 0.75662 | 39270 ft | 458 kts | 171° |
| 2026-04-16 09:35 | 48.16104 | 0.78076 | 39271 ft | 458 kts | 171° |
| 2026-04-16 09:35 | 48.09941 | 0.80499 | 39271 ft | 458 kts | 171° |
| 2026-04-16 09:36 | 48.03785 | 0.82914 | 39271 ft | 458 kts | 171° |
| 2026-04-16 09:36 | 47.97611 | 0.85325 | 39277 ft | 458 kts | 171° |
| 2026-04-16 09:37 | 47.91445 | 0.87725 | 39273 ft | 458 kts | 171° |
| 2026-04-16 09:37 | 47.85273 | 0.90122 | 39271 ft | 459 kts | 171° |
| 2026-04-16 09:38 | 47.79093 | 0.92519 | 39279 ft | 459 kts | 171° |
| 2026-04-16 09:38 | 47.72908 | 0.94912 | 39273 ft | 459 kts | 171° |
| 2026-04-16 09:39 | 47.66725 | 0.97300 | 39276 ft | 460 kts | 171° |
| 2026-04-16 09:39 | 47.60537 | 0.99682 | 39280 ft | 460 kts | 171° |
| 2026-04-16 09:40 | 47.54342 | 1.02062 | 39282 ft | 460 kts | 171° |
| 2026-04-16 09:40 | 47.48146 | 1.04372 | 39273 ft | 456 kts | 176° |
| 2026-04-16 09:40 | 47.45035 | 1.04569 | 39285 ft | 441 kts | 192° |
| 2026-04-16 09:41 | 47.42020 | 1.03855 | 39283 ft | 437 kts | 200° |
| 2026-04-16 09:41 | 47.39226 | 1.02308 | 39289 ft | 424 kts | 213° |
| 2026-04-16 09:41 | 47.36615 | 1.00275 | 39281 ft | 426 kts | 214° |
| 2026-04-16 09:42 | 47.31499 | 0.95901 | 39287 ft | 425 kts | 217° |
| 2026-04-16 09:42 | 47.26450 | 0.91367 | 39287 ft | 424 kts | 217° |
| 2026-04-16 09:43 | 47.21428 | 0.86802 | 39287 ft | 425 kts | 217° |
| 2026-04-16 09:43 | 47.16409 | 0.82234 | 39291 ft | 425 kts | 217° |
| 2026-04-16 09:44 | 47.11381 | 0.77661 | 39287 ft | 425 kts | 217° |
| 2026-04-16 09:44 | 47.06364 | 0.73108 | 39288 ft | 425 kts | 217° |
| 2026-04-16 09:45 | 47.01337 | 0.68555 | 39287 ft | 424 kts | 217° |
| 2026-04-16 09:45 | 46.96340 | 0.64040 | 39286 ft | 424 kts | 217° |
| 2026-04-16 09:46 | 46.91318 | 0.59513 | 39289 ft | 424 kts | 217° |
| 2026-04-16 09:46 | 46.86285 | 0.54987 | 39287 ft | 424 kts | 217° |
| 2026-04-16 09:47 | 46.81233 | 0.50452 | 39288 ft | 424 kts | 217° |
| 2026-04-16 09:47 | 46.76234 | 0.45975 | 39291 ft | 424 kts | 217° |
| 2026-04-16 09:48 | 46.71209 | 0.41486 | 39289 ft | 424 kts | 217° |
| 2026-04-16 09:48 | 46.66181 | 0.37003 | 39291 ft | 424 kts | 216° |
| 2026-04-16 09:49 | 46.61134 | 0.32513 | 39290 ft | 424 kts | 216° |
| 2026-04-16 09:49 | 46.55928 | 0.28409 | 39299 ft | 428 kts | 210° |
| 2026-04-16 09:50 | 46.50519 | 0.24756 | 39289 ft | 429 kts | 210° |
| 2026-04-16 09:50 | 46.45095 | 0.21137 | 39290 ft | 429 kts | 209° |
| 2026-04-16 09:51 | 46.39666 | 0.17525 | 39286 ft | 429 kts | 209° |
| 2026-04-16 09:51 | 46.34236 | 0.13921 | 39288 ft | 429 kts | 209° |
| 2026-04-16 09:52 | 46.28796 | 0.10309 | 39284 ft | 429 kts | 209° |
| 2026-04-16 09:52 | 46.23382 | 0.06692 | 39281 ft | 430 kts | 209° |
| 2026-04-16 09:53 | 46.17985 | 0.03097 | 39281 ft | 430 kts | 209° |
| 2026-04-16 09:53 | 46.12544 | -0.00520 | 39278 ft | 431 kts | 209° |
| 2026-04-16 09:54 | 46.07102 | -0.04129 | 39290 ft | 431 kts | 209° |
| 2026-04-16 09:54 | 46.01646 | -0.07738 | 39280 ft | 431 kts | 209° |
| 2026-04-16 09:55 | 45.96195 | -0.11338 | 39283 ft | 431 kts | 208° |
| 2026-04-16 09:55 | 45.90746 | -0.14928 | 39290 ft | 431 kts | 208° |
| 2026-04-16 09:56 | 45.85292 | -0.18513 | 39285 ft | 431 kts | 208° |
| 2026-04-16 09:56 | 45.79844 | -0.22087 | 39283 ft | 431 kts | 208° |
| 2026-04-16 09:57 | 45.74389 | -0.25658 | 39291 ft | 431 kts | 208° |
| 2026-04-16 09:57 | 45.68971 | -0.29198 | 39280 ft | 431 kts | 208° |
| 2026-04-16 09:58 | 45.63404 | -0.32403 | 39291 ft | 433 kts | 203° |
| 2026-04-16 09:58 | 45.57717 | -0.35270 | 39282 ft | 433 kts | 203° |
| 2026-04-16 09:59 | 45.52022 | -0.38105 | 39285 ft | 433 kts | 202° |
| 2026-04-16 09:59 | 45.46332 | -0.40930 | 39282 ft | 433 kts | 202° |
| 2026-04-16 10:00 | 45.40633 | -0.43753 | 39251 ft | 434 kts | 202° |
| 2026-04-16 10:00 | 45.34954 | -0.46559 | 39281 ft | 431 kts | 202° |
| 2026-04-16 10:01 | 45.26428 | -0.50762 | 39285 ft | 433 kts | 202° |
| 2026-04-16 10:01 | 45.20733 | -0.53562 | 39285 ft | 433 kts | 202° |
| 2026-04-16 10:02 | 45.15040 | -0.56355 | 39286 ft | 433 kts | 202° |
| 2026-04-16 10:02 | 45.09350 | -0.59140 | 39287 ft | 433 kts | 202° |
| 2026-04-16 10:03 | 45.03664 | -0.61917 | 39280 ft | 433 kts | 202° |
| 2026-04-16 10:03 | 44.97969 | -0.64693 | 39288 ft | 433 kts | 202° |
| 2026-04-16 10:04 | 44.92275 | -0.67464 | 39289 ft | 433 kts | 202° |
| 2026-04-16 10:04 | 44.86612 | -0.70214 | 39291 ft | 433 kts | 202° |
| 2026-04-16 10:05 | 44.80694 | -0.71717 | 39305 ft | 439 kts | 182° |
| 2026-04-16 10:05 | 44.74560 | -0.71636 | 39294 ft | 442 kts | 182° |
| 2026-04-16 10:06 | 44.68398 | -0.71393 | 39286 ft | 443 kts | 181° |
| 2026-04-16 10:06 | 44.62236 | -0.71097 | 39266 ft | 443 kts | 181° |
| 2026-04-16 10:07 | 44.56071 | -0.70794 | 39265 ft | 443 kts | 181° |
| 2026-04-16 10:07 | 44.49908 | -0.70491 | 39262 ft | 443 kts | 181° |
| 2026-04-16 10:08 | 44.43743 | -0.70189 | 39260 ft | 444 kts | 181° |
| 2026-04-16 10:08 | 44.37570 | -0.69886 | 39256 ft | 444 kts | 181° |
| 2026-04-16 10:09 | 44.31429 | -0.69587 | 39251 ft | 444 kts | 181° |
| 2026-04-16 10:09 | 44.25254 | -0.69298 | 39247 ft | 443 kts | 184° |
| 2026-04-16 10:10 | 44.22234 | -0.69820 | 39236 ft | 434 kts | 199° |
| 2026-04-16 10:10 | 44.19407 | -0.71218 | 39236 ft | 430 kts | 211° |
| 2026-04-16 10:10 | 44.14483 | -0.75838 | 39239 ft | 427 kts | 220° |
| 2026-04-16 10:11 | 44.09843 | -0.80966 | 39244 ft | 426 kts | 222° |
| 2026-04-16 10:11 | 44.05273 | -0.86211 | 39242 ft | 426 kts | 223° |
| 2026-04-16 10:12 | 44.00722 | -0.91485 | 39239 ft | 426 kts | 223° |
| 2026-04-16 10:12 | 43.96175 | -0.96751 | 39239 ft | 425 kts | 223° |
| 2026-04-16 10:13 | 43.91572 | -1.01898 | 39238 ft | 426 kts | 220° |
| 2026-04-16 10:13 | 43.86853 | -1.06873 | 39237 ft | 426 kts | 220° |
| 2026-04-16 10:14 | 43.82177 | -1.11829 | 39238 ft | 426 kts | 220° |
| 2026-04-16 10:14 | 43.77476 | -1.16803 | 39236 ft | 425 kts | 220° |
| 2026-04-16 10:15 | 43.72849 | -1.21896 | 39236 ft | 424 kts | 222° |
| 2026-04-16 10:15 | 43.68264 | -1.27028 | 39233 ft | 424 kts | 222° |
| 2026-04-16 10:16 | 43.63667 | -1.32151 | 39227 ft | 424 kts | 222° |
| 2026-04-16 10:16 | 43.59072 | -1.37260 | 39237 ft | 424 kts | 222° |
| 2026-04-16 10:17 | 43.54480 | -1.42356 | 39244 ft | 424 kts | 222° |
| 2026-04-16 10:17 | 43.50625 | -1.46611 | 39233 ft | 424 kts | 219° |
| 2026-04-16 10:18 | 43.48050 | -1.48606 | 39226 ft | 428 kts | 204° |
| 2026-04-16 10:18 | 43.45201 | -1.49740 | 39218 ft | 435 kts | 192° |
| 2026-04-16 10:18 | 43.39108 | -1.49983 | 39233 ft | 442 kts | 182° |
| 2026-04-16 10:19 | 43.32950 | -1.49558 | 39233 ft | 444 kts | 180° |
| 2026-04-16 10:19 | 43.26798 | -1.48769 | 39234 ft | 446 kts | 176° |
| 2026-04-16 10:20 | 43.20639 | -1.47674 | 39227 ft | 447 kts | 176° |
| 2026-04-16 10:20 | 43.14437 | -1.46606 | 39225 ft | 447 kts | 176° |
| 2026-04-16 10:21 | 43.08302 | -1.45890 | 39214 ft | 440 kts | 188° |
| 2026-04-16 10:21 | 43.05322 | -1.46617 | 39218 ft | 433 kts | 203° |
| 2026-04-16 10:21 | 43.02553 | -1.48203 | 39235 ft | 430 kts | 209° |
| 2026-04-16 10:22 | 42.97225 | -1.51908 | 39228 ft | 430 kts | 212° |
| 2026-04-16 10:22 | 42.92005 | -1.55845 | 39231 ft | 429 kts | 213° |
| 2026-04-16 10:23 | 42.86799 | -1.59852 | 39235 ft | 429 kts | 213° |
| 2026-04-16 10:23 | 42.81622 | -1.63848 | 39233 ft | 428 kts | 213° |
| 2026-04-16 10:24 | 42.76430 | -1.67850 | 39234 ft | 428 kts | 213° |
| 2026-04-16 10:24 | 42.71136 | -1.71605 | 39248 ft | 430 kts | 210° |
| 2026-04-16 10:25 | 42.65771 | -1.75217 | 39233 ft | 429 kts | 210° |
| 2026-04-16 10:25 | 42.60433 | -1.78829 | 39224 ft | 429 kts | 210° |
| 2026-04-16 10:26 | 42.55079 | -1.82450 | 39218 ft | 429 kts | 211° |
| 2026-04-16 10:26 | 42.49737 | -1.86054 | 39212 ft | 429 kts | 210° |
| 2026-04-16 10:27 | 42.44386 | -1.89659 | 39214 ft | 429 kts | 210° |
| 2026-04-16 10:27 | 42.39059 | -1.93210 | 39216 ft | 429 kts | 210° |
| 2026-04-16 10:28 | 42.33695 | -1.96781 | 39207 ft | 430 kts | 210° |
| 2026-04-16 10:28 | 42.28336 | -2.00341 | 39203 ft | 430 kts | 210° |
| 2026-04-16 10:29 | 42.22966 | -2.03901 | 39198 ft | 430 kts | 210° |
| 2026-04-16 10:29 | 42.17605 | -2.07449 | 39206 ft | 430 kts | 210° |
| 2026-04-16 10:30 | 42.12235 | -2.10996 | 39217 ft | 430 kts | 210° |
| 2026-04-16 10:30 | 42.06866 | -2.14536 | 39220 ft | 430 kts | 210° |
| 2026-04-16 10:31 | 42.01484 | -2.18078 | 39215 ft | 430 kts | 210° |
| 2026-04-16 10:31 | 41.96115 | -2.21604 | 39210 ft | 430 kts | 210° |
| 2026-04-16 10:32 | 41.90736 | -2.25131 | 39209 ft | 430 kts | 210° |
| 2026-04-16 10:32 | 41.85364 | -2.28646 | 39211 ft | 430 kts | 210° |
| 2026-04-16 10:33 | 41.79980 | -2.32162 | 39211 ft | 430 kts | 210° |
| 2026-04-16 10:33 | 41.74606 | -2.35664 | 39210 ft | 430 kts | 210° |
| 2026-04-16 10:34 | 41.69230 | -2.39163 | 39215 ft | 430 kts | 210° |
| 2026-04-16 10:34 | 41.63858 | -2.42651 | 39214 ft | 429 kts | 210° |
| 2026-04-16 10:35 | 41.58474 | -2.46142 | 39213 ft | 429 kts | 210° |
| 2026-04-16 10:35 | 41.53132 | -2.49599 | 39217 ft | 429 kts | 210° |
| 2026-04-16 10:36 | 41.47758 | -2.53069 | 39214 ft | 429 kts | 211° |
| 2026-04-16 10:36 | 41.42379 | -2.56535 | 39210 ft | 429 kts | 211° |
| 2026-04-16 10:37 | 41.37003 | -2.59994 | 39211 ft | 430 kts | 211° |
| 2026-04-16 10:37 | 41.31275 | -2.62312 | 39206 ft | 442 kts | 186° |
| 2026-04-16 10:38 | 41.25081 | -2.62187 | 39205 ft | 448 kts | 182° |
| 2026-04-16 10:38 | 41.18839 | -2.61744 | 39207 ft | 449 kts | 181° |
| 2026-04-16 10:39 | 41.12585 | -2.61208 | 39195 ft | 450 kts | 181° |
| 2026-04-16 10:39 | 41.06337 | -2.60654 | 39209 ft | 451 kts | 181° |
| 2026-04-16 10:40 | 41.00082 | -2.60099 | 39203 ft | 450 kts | 181° |
| 2026-04-16 10:40 | 40.93816 | -2.59532 | 39205 ft | 451 kts | 181° |
| 2026-04-16 10:41 | 40.87560 | -2.58968 | 39203 ft | 451 kts | 181° |
| 2026-04-16 10:41 | 40.81292 | -2.58403 | 39207 ft | 451 kts | 181° |
| 2026-04-16 10:42 | 40.75025 | -2.57840 | 39203 ft | 452 kts | 181° |
| 2026-04-16 10:42 | 40.68782 | -2.57280 | 39208 ft | 452 kts | 181° |
| 2026-04-16 10:43 | 40.62454 | -2.56713 | 39205 ft | 453 kts | 181° |
| 2026-04-16 10:43 | 40.56213 | -2.56155 | 39209 ft | 453 kts | 181° |
| 2026-04-16 10:44 | 40.49922 | -2.55594 | 39204 ft | 453 kts | 181° |
| 2026-04-16 10:44 | 40.43616 | -2.55032 | 39209 ft | 454 kts | 181° |
| 2026-04-16 10:45 | 40.37370 | -2.55035 | 39199 ft | 441 kts | 199° |
| 2026-04-16 10:45 | 40.31564 | -2.57460 | 39215 ft | 438 kts | 205° |
| 2026-04-16 10:46 | 40.25829 | -2.60208 | 39208 ft | 438 kts | 206° |
| 2026-04-16 10:46 | 40.20133 | -2.63037 | 39207 ft | 438 kts | 206° |
| 2026-04-16 10:47 | 40.14453 | -2.65877 | 39206 ft | 438 kts | 206° |
| 2026-04-16 10:47 | 40.08758 | -2.68722 | 39215 ft | 438 kts | 206° |
| 2026-04-16 10:48 | 40.03058 | -2.71566 | 39213 ft | 438 kts | 206° |
| 2026-04-16 10:48 | 39.97359 | -2.74403 | 39220 ft | 438 kts | 206° |
| 2026-04-16 10:49 | 39.91662 | -2.77234 | 39219 ft | 438 kts | 206° |
| 2026-04-16 10:49 | 39.85970 | -2.80058 | 39219 ft | 438 kts | 206° |
| 2026-04-16 10:50 | 39.80260 | -2.82885 | 39212 ft | 438 kts | 206° |
| 2026-04-16 10:50 | 39.74566 | -2.85700 | 39213 ft | 438 kts | 206° |
| 2026-04-16 10:51 | 39.68869 | -2.88512 | 39220 ft | 438 kts | 206° |
| 2026-04-16 10:51 | 39.63172 | -2.91319 | 39224 ft | 438 kts | 206° |
| 2026-04-16 10:52 | 39.57476 | -2.94127 | 39216 ft | 438 kts | 206° |
| 2026-04-16 10:52 | 39.51777 | -2.96940 | 39217 ft | 438 kts | 206° |
| 2026-04-16 10:53 | 39.46118 | -2.99727 | 39215 ft | 438 kts | 206° |
| 2026-04-16 10:53 | 39.40381 | -3.02545 | 39211 ft | 438 kts | 206° |
| 2026-04-16 10:54 | 39.34727 | -3.05303 | 39213 ft | 438 kts | 206° |
| 2026-04-16 10:54 | 39.29030 | -3.08078 | 39208 ft | 438 kts | 206° |
| 2026-04-16 10:55 | 39.23320 | -3.10855 | 39209 ft | 438 kts | 206° |
| 2026-04-16 10:55 | 39.17619 | -3.13622 | 39204 ft | 438 kts | 206° |
| 2026-04-16 10:56 | 39.11924 | -3.16382 | 39201 ft | 438 kts | 206° |
| 2026-04-16 10:56 | 39.06208 | -3.19147 | 39206 ft | 438 kts | 206° |
| 2026-04-16 10:57 | 39.00513 | -3.21897 | 39200 ft | 438 kts | 206° |
| 2026-04-16 10:57 | 38.94774 | -3.24661 | 38689 ft | 442 kts | 206° |
| 2026-04-16 10:58 | 38.91924 | -3.26031 | 38536 ft | 443 kts | 206° |
| 2026-04-16 10:58 | 38.89033 | -3.27421 | 38502 ft | 445 kts | 206° |
| 2026-04-16 10:58 | 38.83238 | -3.30201 | 38166 ft | 443 kts | 205° |
| 2026-04-16 10:59 | 38.80368 | -3.31577 | 37657 ft | 438 kts | 205° |
| 2026-04-16 10:59 | 38.77521 | -3.32940 | 37183 ft | 434 kts | 205° |
| 2026-04-16 10:59 | 38.74705 | -3.34288 | 36681 ft | 431 kts | 205° |
| 2026-04-16 10:59 | 38.71913 | -3.35622 | 36171 ft | 428 kts | 205° |
| 2026-04-16 11:00 | 38.69131 | -3.36951 | 35673 ft | 424 kts | 205° |
| 2026-04-16 11:00 | 38.66373 | -3.38267 | 35185 ft | 422 kts | 205° |
| 2026-04-16 11:00 | 38.63635 | -3.39574 | 34710 ft | 419 kts | 205° |
| 2026-04-16 11:00 | 38.60911 | -3.40871 | 34235 ft | 416 kts | 205° |
| 2026-04-16 11:01 | 38.58206 | -3.42159 | 33708 ft | 414 kts | 205° |
| 2026-04-16 11:01 | 38.55512 | -3.43441 | 33170 ft | 411 kts | 205° |
| 2026-04-16 11:01 | 38.52852 | -3.44706 | 32672 ft | 407 kts | 205° |
| 2026-04-16 11:01 | 38.50202 | -3.45964 | 32146 ft | 404 kts | 205° |
| 2026-04-16 11:02 | 38.47577 | -3.47210 | 31642 ft | 401 kts | 205° |
| 2026-04-16 11:02 | 38.44966 | -3.48448 | 31153 ft | 398 kts | 205° |
| 2026-04-16 11:02 | 38.42382 | -3.49673 | 30671 ft | 396 kts | 204° |
| 2026-04-16 11:02 | 38.39801 | -3.50895 | 30194 ft | 395 kts | 204° |
| 2026-04-16 11:03 | 38.37242 | -3.52106 | 29673 ft | 392 kts | 204° |
| 2026-04-16 11:03 | 38.34717 | -3.53300 | 29216 ft | 390 kts | 204° |
| 2026-04-16 11:03 | 38.29661 | -3.55688 | 28317 ft | 386 kts | 204° |
| 2026-04-16 11:04 | 38.27159 | -3.56868 | 27865 ft | 384 kts | 204° |
| 2026-04-16 11:04 | 38.24664 | -3.58044 | 27431 ft | 382 kts | 204° |
| 2026-04-16 11:04 | 38.22171 | -3.59219 | 27003 ft | 380 kts | 204° |
| 2026-04-16 11:04 | 38.19700 | -3.60382 | 26586 ft | 379 kts | 204° |
| 2026-04-16 11:05 | 38.17232 | -3.61543 | 26175 ft | 377 kts | 204° |
| 2026-04-16 11:05 | 38.14675 | -3.62345 | 25737 ft | 382 kts | 187° |
| 2026-04-16 11:05 | 38.12015 | -3.62419 | 25333 ft | 382 kts | 184° |
| 2026-04-16 11:05 | 38.09363 | -3.62483 | 24922 ft | 381 kts | 184° |
| 2026-04-16 11:06 | 38.06711 | -3.62528 | 24521 ft | 381 kts | 184° |
| 2026-04-16 11:06 | 38.04061 | -3.62559 | 24126 ft | 379 kts | 183° |
| 2026-04-16 11:06 | 38.01429 | -3.62585 | 23727 ft | 378 kts | 183° |
| 2026-04-16 11:06 | 37.98803 | -3.62607 | 23262 ft | 376 kts | 183° |
| 2026-04-16 11:07 | 37.96196 | -3.62629 | 22804 ft | 374 kts | 183° |
| 2026-04-16 11:07 | 37.93606 | -3.62651 | 22345 ft | 372 kts | 183° |
| 2026-04-16 11:07 | 37.91032 | -3.62672 | 21895 ft | 369 kts | 182° |
| 2026-04-16 11:07 | 37.88463 | -3.62693 | 21452 ft | 368 kts | 182° |
| 2026-04-16 11:08 | 37.85916 | -3.62714 | 21020 ft | 366 kts | 182° |
| 2026-04-16 11:08 | 37.84232 | -3.62728 | 20734 ft | 365 kts | 182° |
| 2026-04-16 11:08 | 37.81698 | -3.62749 | 20312 ft | 363 kts | 182° |
| 2026-04-16 11:08 | 37.79180 | -3.62770 | 19886 ft | 362 kts | 182° |
| 2026-04-16 11:09 | 37.75843 | -3.62797 | 19334 ft | 360 kts | 182° |
| 2026-04-16 11:09 | 37.73346 | -3.62818 | 18930 ft | 359 kts | 182° |
| 2026-04-16 11:09 | 37.70854 | -3.62839 | 18527 ft | 358 kts | 181° |
| 2026-04-16 11:09 | 37.68369 | -3.62859 | 18069 ft | 357 kts | 181° |
| 2026-04-16 11:10 | 37.66684 | -3.62873 | 17751 ft | 356 kts | 181° |
| 2026-04-16 11:10 | 37.64216 | -3.62893 | 17289 ft | 355 kts | 181° |
| 2026-04-16 11:10 | 37.61744 | -3.62912 | 16833 ft | 354 kts | 181° |
| 2026-04-16 11:10 | 37.59285 | -3.62931 | 16388 ft | 353 kts | 181° |
| 2026-04-16 11:11 | 37.56837 | -3.62949 | 16011 ft | 350 kts | 181° |
| 2026-04-16 11:11 | 37.54420 | -3.62969 | 15707 ft | 344 kts | 181° |
| 2026-04-16 11:11 | 37.52082 | -3.62987 | 15539 ft | 336 kts | 181° |
| 2026-04-16 11:11 | 37.49734 | -3.63004 | 15344 ft | 331 kts | 181° |
| 2026-04-16 11:12 | 37.47440 | -3.63022 | 15145 ft | 330 kts | 181° |
| 2026-04-16 11:12 | 37.45143 | -3.63041 | 14948 ft | 330 kts | 181° |
| 2026-04-16 11:12 | 37.42853 | -3.63047 | 14741 ft | 329 kts | 178° |
| 2026-04-16 11:12 | 37.40641 | -3.62439 | 14544 ft | 325 kts | 153° |
| 2026-04-16 11:13 | 37.38832 | -3.60807 | 14342 ft | 320 kts | 129° |
| 2026-04-16 11:13 | 37.37611 | -3.58548 | 14156 ft | 316 kts | 116° |
| 2026-04-16 11:13 | 37.36555 | -3.56125 | 13963 ft | 316 kts | 115° |
| 2026-04-16 11:13 | 37.35529 | -3.53686 | 13741 ft | 315 kts | 114° |
| 2026-04-16 11:14 | 37.34523 | -3.51245 | 13533 ft | 313 kts | 114° |
| 2026-04-16 11:14 | 37.33532 | -3.48815 | 13325 ft | 312 kts | 114° |
| 2026-04-16 11:14 | 37.32553 | -3.46392 | 13155 ft | 310 kts | 114° |
| 2026-04-16 11:14 | 37.31578 | -3.43972 | 13185 ft | 311 kts | 114° |
| 2026-04-16 11:15 | 37.30608 | -3.41559 | 13202 ft | 311 kts | 114° |
| 2026-04-16 11:15 | 37.29630 | -3.39127 | 13206 ft | 311 kts | 114° |
| 2026-04-16 11:15 | 37.28655 | -3.36702 | 13209 ft | 311 kts | 114° |
| 2026-04-16 11:15 | 37.27678 | -3.34277 | 13208 ft | 311 kts | 114° |
| 2026-04-16 11:16 | 37.26706 | -3.31863 | 13213 ft | 311 kts | 114° |
| 2026-04-16 11:16 | 37.25726 | -3.29432 | 13210 ft | 311 kts | 114° |
| 2026-04-16 11:16 | 37.24762 | -3.27008 | 13209 ft | 311 kts | 113° |
| 2026-04-16 11:16 | 37.23806 | -3.24565 | 13216 ft | 311 kts | 113° |
| 2026-04-16 11:17 | 37.22853 | -3.22138 | 13214 ft | 311 kts | 113° |
| 2026-04-16 11:17 | 37.21894 | -3.19700 | 13220 ft | 311 kts | 113° |
| 2026-04-16 11:17 | 37.20938 | -3.17271 | 13220 ft | 311 kts | 113° |
| 2026-04-16 11:17 | 37.19977 | -3.14832 | 13212 ft | 311 kts | 113° |
| 2026-04-16 11:18 | 37.19022 | -3.12408 | 13219 ft | 311 kts | 113° |
| 2026-04-16 11:18 | 37.18060 | -3.09972 | 13223 ft | 311 kts | 113° |
| 2026-04-16 11:18 | 37.17099 | -3.07536 | 13221 ft | 312 kts | 113° |
| 2026-04-16 11:18 | 37.16136 | -3.05101 | 13222 ft | 312 kts | 113° |
| 2026-04-16 11:19 | 37.15175 | -3.02669 | 13228 ft | 312 kts | 113° |
| 2026-04-16 11:19 | 37.14209 | -3.00230 | 13161 ft | 312 kts | 113° |
| 2026-04-16 11:19 | 37.13243 | -2.97794 | 13035 ft | 311 kts | 113° |
| 2026-04-16 11:19 | 37.12282 | -2.95366 | 13009 ft | 311 kts | 113° |
| 2026-04-16 11:20 | 37.11318 | -2.92941 | 13032 ft | 312 kts | 113° |
| 2026-04-16 11:20 | 37.10366 | -2.90542 | 13005 ft | 311 kts | 113° |
| 2026-04-16 11:20 | 37.09406 | -2.88123 | 13028 ft | 311 kts | 113° |
| 2026-04-16 11:20 | 37.08441 | -2.85698 | 13027 ft | 311 kts | 114° |
| 2026-04-16 11:21 | 37.07476 | -2.83271 | 12995 ft | 311 kts | 113° |
| 2026-04-16 11:21 | 37.06514 | -2.80856 | 12997 ft | 311 kts | 113° |
| 2026-04-16 11:21 | 37.05545 | -2.78423 | 13007 ft | 311 kts | 113° |
| 2026-04-16 11:21 | 37.04553 | -2.76028 | 13029 ft | 311 kts | 115° |
| 2026-04-16 11:22 | 37.03543 | -2.73633 | 13003 ft | 311 kts | 115° |
| 2026-04-16 11:22 | 37.02534 | -2.71235 | 12964 ft | 311 kts | 114° |
| 2026-04-16 11:22 | 37.01836 | -2.68717 | 12742 ft | 303 kts | 92° |
| 2026-04-16 11:22 | 37.01995 | -2.66163 | 12526 ft | 293 kts | 72° |
| 2026-04-16 11:23 | 37.02440 | -2.63662 | 12219 ft | 298 kts | 84° |
| 2026-04-16 11:23 | 37.02034 | -2.61109 | 11806 ft | 306 kts | 115° |
| 2026-04-16 11:23 | 37.00793 | -2.58939 | 11427 ft | 307 kts | 124° |
| 2026-04-16 11:23 | 36.99889 | -2.56603 | 11006 ft | 300 kts | 96° |
| 2026-04-16 11:24 | 37.00049 | -2.54061 | 10604 ft | 288 kts | 65° |
| 2026-04-16 11:24 | 37.01202 | -2.52108 | 10229 ft | 278 kts | 33° |
| 2026-04-16 11:24 | 37.02926 | -2.51065 | 9852 ft | 273 kts | 21° |
| 2026-04-16 11:24 | 37.04496 | -2.49750 | 9449 ft | 275 kts | 45° |
| 2026-04-16 11:25 | 37.05655 | -2.47845 | 9053 ft | 276 kts | 54° |
| 2026-04-16 11:25 | 37.06700 | -2.45837 | 8667 ft | 276 kts | 55° |
| 2026-04-16 11:25 | 37.07690 | -2.43811 | 8266 ft | 276 kts | 58° |
| 2026-04-16 11:25 | 37.08609 | -2.41683 | 7899 ft | 274 kts | 62° |
| 2026-04-16 11:26 | 37.09391 | -2.39553 | 7619 ft | 270 kts | 65° |
| 2026-04-16 11:26 | 37.10059 | -2.37368 | 7383 ft | 266 kts | 69° |
| 2026-04-16 11:26 | 37.10602 | -2.35152 | 7154 ft | 267 kts | 73° |
| 2026-04-16 11:26 | 37.11036 | -2.32879 | 6917 ft | 268 kts | 77° |
| 2026-04-16 11:27 | 37.11352 | -2.30585 | 6681 ft | 268 kts | 81° |
| 2026-04-16 11:27 | 37.11546 | -2.28272 | 6419 ft | 267 kts | 85° |
| 2026-04-16 11:27 | 37.11615 | -2.25958 | 6169 ft | 263 kts | 89° |
| 2026-04-16 11:27 | 37.11563 | -2.23691 | 5916 ft | 258 kts | 93° |
| 2026-04-16 11:28 | 37.11399 | -2.21477 | 5669 ft | 254 kts | 96° |
| 2026-04-16 11:28 | 37.11127 | -2.19301 | 5400 ft | 251 kts | 100° |
| 2026-04-16 11:28 | 37.10755 | -2.17190 | 5187 ft | 247 kts | 104° |
| 2026-04-16 11:28 | 37.10289 | -2.15133 | 4920 ft | 243 kts | 107° |
| 2026-04-16 11:29 | 37.09724 | -2.13155 | 4670 ft | 240 kts | 112° |
| 2026-04-16 11:29 | 37.09054 | -2.11250 | 4465 ft | 236 kts | 119° |
| 2026-04-16 11:29 | 37.07923 | -2.09799 | 4238 ft | 235 kts | 151° |
| 2026-04-16 11:29 | 37.06364 | -2.09224 | 4038 ft | 235 kts | 174° |
| 2026-04-16 11:30 | 37.04731 | -2.09000 | 3857 ft | 236 kts | 174° |
| 2026-04-16 11:30 | 37.03099 | -2.08788 | 3667 ft | 236 kts | 174° |
| 2026-04-16 11:30 | 37.01472 | -2.08586 | 3481 ft | 234 kts | 174° |
| 2026-04-16 11:30 | 36.99867 | -2.08395 | 3299 ft | 229 kts | 174° |
| 2026-04-16 11:31 | 36.98310 | -2.08217 | 3164 ft | 221 kts | 174° |
| 2026-04-16 11:31 | 36.96800 | -2.08048 | 3046 ft | 214 kts | 174° |
| 2026-04-16 11:31 | 36.95344 | -2.07885 | 2922 ft | 207 kts | 173° |
| 2026-04-16 11:31 | 36.93921 | -2.07725 | 2785 ft | 206 kts | 174° |
| 2026-04-16 11:32 | 36.92507 | -2.07893 | 2659 ft | 206 kts | 204° |
| 2026-04-16 11:32 | 36.91431 | -2.09043 | 2684 ft | 208 kts | 238° |
| 2026-04-16 11:32 | 36.90889 | -2.10721 | 2726 ft | 211 kts | 252° |
| 2026-04-16 11:32 | 36.90440 | -2.12471 | 2715 ft | 212 kts | 252° |
| 2026-04-16 11:33 | 36.89996 | -2.14231 | 2675 ft | 212 kts | 252° |
| 2026-04-16 11:33 | 36.89565 | -2.15983 | 2674 ft | 211 kts | 252° |
| 2026-04-16 11:33 | 36.89133 | -2.17738 | 2685 ft | 211 kts | 252° |
| 2026-04-16 11:33 | 36.88714 | -2.19470 | 2745 ft | 211 kts | 253° |
| 2026-04-16 11:34 | 36.88280 | -2.21240 | 2765 ft | 206 kts | 253° |
| 2026-04-16 11:34 | 36.87878 | -2.22882 | 2741 ft | 190 kts | 253° |
| 2026-04-16 11:34 | 36.87499 | -2.24442 | 2521 ft | 188 kts | 253° |
| 2026-04-16 11:34 | 36.87134 | -2.25962 | 2117 ft | 179 kts | 252° |
| 2026-04-16 11:35 | 36.86794 | -2.27446 | 1802 ft | 174 kts | 253° |
| 2026-04-16 11:35 | 36.86483 | -2.28835 | 1525 ft | 160 kts | 253° |
| 2026-04-16 11:35 | 36.86178 | -2.30104 | 1274 ft | 144 kts | 247° |
| 2026-04-16 11:35 | 36.85816 | -2.31236 | 1080 ft | 140 kts | 250° |
| 2026-04-16 11:36 | 36.85530 | -2.32393 | 900 ft | 139 kts | 251° |
| 2026-04-16 11:36 | 36.85251 | -2.33538 | 668 ft | 136 kts | 251° |
| 2026-04-16 11:36 | 36.84975 | -2.34662 | 385 ft | 138 kts | 252° |
| 2026-04-16 11:36 | 36.84704 | -2.35844 | 64 ft | 140 kts | 253° |
| 2026-04-16 11:37 | 36.84509 | -2.36631 | 55 ft | 25 kts | 252° |
| 2026-04-16 11:37 | 36.84479 | -2.36750 | 57 ft | 12 kts | 252° |
| 2026-04-16 11:37 | 36.84451 | -2.36860 | 55 ft | 14 kts | 252° |
| 2026-04-16 11:37 | 36.84438 | -2.36912 | 63 ft | 2 kts | 252° |